sensor_id;sensor_type;location;lat;lon;timestamp;pressure;altitude;pressure_sealevel;temperature;humidity
53635;BME280;39542;-34.932;138.594;2023-07-29T00:00:32;101475.62;;;15.46;68.21
53635;BME280;39542;-34.932;138.594;2023-07-29T00:01:06;101473.80;;;15.44;68.26
53635;BME280;39542;-34.932;138.594;2023-07-29T00:01:42;101475.89;;;15.43;68.22
53635;BME280;39542;-34.932;138.594;2023-07-29T00:02:16;101476.95;;;15.41;68.32
53635;BME280;39542;-34.932;138.594;2023-07-29T00:02:50;101479.94;;;15.42;68.17
53635;BME280;39542;-34.932;138.594;2023-07-29T00:03:25;101482.53;;;15.43;68.22
53635;BME280;39542;-34.932;138.594;2023-07-29T00:03:59;101479.98;;;15.43;68.20
53635;BME280;39542;-34.932;138.594;2023-07-29T00:04:33;101481.25;;;15.42;68.28
53635;BME280;39542;-34.932;138.594;2023-07-29T00:05:08;101476.00;;;15.45;68.14
53635;BME280;39542;-34.932;138.594;2023-07-29T00:05:42;101476.28;;;15.44;68.13
53635;BME280;39542;-34.932;138.594;2023-07-29T00:06:17;101479.13;;;15.46;68.14
53635;BME280;39542;-34.932;138.594;2023-07-29T00:06:51;101478.32;;;15.45;68.35
53635;BME280;39542;-34.932;138.594;2023-07-29T00:07:25;101479.81;;;15.47;68.32
53635;BME280;39542;-34.932;138.594;2023-07-29T00:07:59;101481.38;;;15.47;68.32
53635;BME280;39542;-34.932;138.594;2023-07-29T00:08:34;101481.73;;;15.47;68.25
53635;BME280;39542;-34.932;138.594;2023-07-29T00:09:09;101482.72;;;15.48;68.21
53635;BME280;39542;-34.932;138.594;2023-07-29T00:09:43;101478.78;;;15.48;68.16
53635;BME280;39542;-34.932;138.594;2023-07-29T00:10:17;101481.99;;;15.48;68.14
53635;BME280;39542;-34.932;138.594;2023-07-29T00:10:51;101479.87;;;15.48;68.12
53635;BME280;39542;-34.932;138.594;2023-07-29T00:11:26;101478.69;;;15.48;68.16
53635;BME280;39542;-34.932;138.594;2023-07-29T00:12:00;101480.20;;;15.48;68.15
53635;BME280;39542;-34.932;138.594;2023-07-29T00:12:34;101477.00;;;15.48;68.08
53635;BME280;39542;-34.932;138.594;2023-07-29T00:13:09;101477.14;;;15.48;68.12
53635;BME280;39542;-34.932;138.594;2023-07-29T00:13:43;101474.64;;;15.47;68.17
53635;BME280;39542;-34.932;138.594;2023-07-29T00:14:17;101474.62;;;15.46;68.12
53635;BME280;39542;-34.932;138.594;2023-07-29T00:14:52;101474.34;;;15.46;68.07
53635;BME280;39542;-34.932;138.594;2023-07-29T00:15:26;101474.50;;;15.49;68.04
53635;BME280;39542;-34.932;138.594;2023-07-29T00:16:01;101477.80;;;15.49;68.05
53635;BME280;39542;-34.932;138.594;2023-07-29T00:16:35;101475.74;;;15.48;68.03
53635;BME280;39542;-34.932;138.594;2023-07-29T00:17:09;101476.99;;;15.48;68.04
53635;BME280;39542;-34.932;138.594;2023-07-29T00:17:44;101476.62;;;15.47;68.10
53635;BME280;39542;-34.932;138.594;2023-07-29T00:18:18;101476.57;;;15.47;68.08
53635;BME280;39542;-34.932;138.594;2023-07-29T00:18:53;101474.77;;;15.47;68.04
53635;BME280;39542;-34.932;138.594;2023-07-29T00:19:27;101472.23;;;15.47;68.16
53635;BME280;39542;-34.932;138.594;2023-07-29T00:20:01;101473.04;;;15.47;68.05
53635;BME280;39542;-34.932;138.594;2023-07-29T00:20:36;101469.90;;;15.47;68.13
53635;BME280;39542;-34.932;138.594;2023-07-29T00:21:10;101472.74;;;15.46;68.10
53635;BME280;39542;-34.932;138.594;2023-07-29T00:21:45;101469.38;;;15.46;68.16
53635;BME280;39542;-34.932;138.594;2023-07-29T00:22:19;101470.03;;;15.47;68.17
53635;BME280;39542;-34.932;138.594;2023-07-29T00:22:53;101470.23;;;15.46;68.16
53635;BME280;39542;-34.932;138.594;2023-07-29T00:23:28;101473.38;;;15.45;68.25
53635;BME280;39542;-34.932;138.594;2023-07-29T00:24:03;101474.35;;;15.44;68.30
53635;BME280;39542;-34.932;138.594;2023-07-29T00:24:37;101473.96;;;15.44;68.24
53635;BME280;39542;-34.932;138.594;2023-07-29T00:25:11;101475.89;;;15.44;68.26
53635;BME280;39542;-34.932;138.594;2023-07-29T00:25:46;101476.30;;;15.44;68.29
53635;BME280;39542;-34.932;138.594;2023-07-29T00:26:20;101479.61;;;15.45;68.21
53635;BME280;39542;-34.932;138.594;2023-07-29T00:26:54;101481.11;;;15.46;68.19
53635;BME280;39542;-34.932;138.594;2023-07-29T00:27:28;101481.71;;;15.46;68.30
53635;BME280;39542;-34.932;138.594;2023-07-29T00:28:03;101480.56;;;15.45;68.28
53635;BME280;39542;-34.932;138.594;2023-07-29T00:28:37;101477.97;;;15.46;68.32
53635;BME280;39542;-34.932;138.594;2023-07-29T00:29:11;101478.82;;;15.47;68.23
53635;BME280;39542;-34.932;138.594;2023-07-29T00:29:45;101478.92;;;15.48;68.32
53635;BME280;39542;-34.932;138.594;2023-07-29T00:30:19;101479.85;;;15.50;68.25
53635;BME280;39542;-34.932;138.594;2023-07-29T00:30:54;101479.84;;;15.50;68.20
53635;BME280;39542;-34.932;138.594;2023-07-29T00:31:28;101479.15;;;15.49;68.45
53635;BME280;39542;-34.932;138.594;2023-07-29T00:32:03;101481.16;;;15.50;68.35
53635;BME280;39542;-34.932;138.594;2023-07-29T00:32:38;101482.42;;;15.50;68.26
53635;BME280;39542;-34.932;138.594;2023-07-29T00:33:13;101484.08;;;15.48;68.56
53635;BME280;39542;-34.932;138.594;2023-07-29T00:33:47;101484.46;;;15.50;68.89
53635;BME280;39542;-34.932;138.594;2023-07-29T00:34:21;101483.03;;;15.50;68.66
53635;BME280;39542;-34.932;138.594;2023-07-29T00:34:56;101482.26;;;15.50;68.73
53635;BME280;39542;-34.932;138.594;2023-07-29T00:35:30;101483.29;;;15.51;68.58
53635;BME280;39542;-34.932;138.594;2023-07-29T00:36:05;101483.15;;;15.50;68.43
53635;BME280;39542;-34.932;138.594;2023-07-29T00:36:39;101483.49;;;15.50;68.44
53635;BME280;39542;-34.932;138.594;2023-07-29T00:37:14;101481.45;;;15.50;68.49
53635;BME280;39542;-34.932;138.594;2023-07-29T00:37:48;101481.08;;;15.51;68.40
53635;BME280;39542;-34.932;138.594;2023-07-29T00:38:23;101478.40;;;15.51;68.40
53635;BME280;39542;-34.932;138.594;2023-07-29T00:38:58;101477.29;;;15.52;68.42
53635;BME280;39542;-34.932;138.594;2023-07-29T00:39:32;101480.65;;;15.53;68.40
53635;BME280;39542;-34.932;138.594;2023-07-29T00:40:12;101482.19;;;15.53;68.37
53635;BME280;39542;-34.932;138.594;2023-07-29T00:40:48;101483.25;;;15.53;68.47
53635;BME280;39542;-34.932;138.594;2023-07-29T00:41:23;101485.09;;;15.53;68.41
53635;BME280;39542;-34.932;138.594;2023-07-29T00:41:58;101482.68;;;15.53;68.39
53635;BME280;39542;-34.932;138.594;2023-07-29T00:42:33;101486.18;;;15.53;68.37
53635;BME280;39542;-34.932;138.594;2023-07-29T00:43:07;101486.28;;;15.53;68.41
53635;BME280;39542;-34.932;138.594;2023-07-29T00:43:41;101483.60;;;15.54;68.48
53635;BME280;39542;-34.932;138.594;2023-07-29T00:44:15;101484.43;;;15.53;68.46
53635;BME280;39542;-34.932;138.594;2023-07-29T00:44:50;101480.66;;;15.53;68.54
53635;BME280;39542;-34.932;138.594;2023-07-29T00:45:26;101479.64;;;15.54;68.52
53635;BME280;39542;-34.932;138.594;2023-07-29T00:46:01;101480.26;;;15.54;68.47
53635;BME280;39542;-34.932;138.594;2023-07-29T00:46:36;101479.62;;;15.54;68.52
53635;BME280;39542;-34.932;138.594;2023-07-29T00:47:13;101479.66;;;15.54;68.52
53635;BME280;39542;-34.932;138.594;2023-07-29T00:47:49;101483.56;;;15.53;68.60
53635;BME280;39542;-34.932;138.594;2023-07-29T00:48:24;101484.67;;;15.53;68.55
53635;BME280;39542;-34.932;138.594;2023-07-29T00:48:58;101484.23;;;15.53;68.61
53635;BME280;39542;-34.932;138.594;2023-07-29T00:49:33;101484.20;;;15.54;68.64
53635;BME280;39542;-34.932;138.594;2023-07-29T00:50:09;101485.56;;;15.55;68.68
53635;BME280;39542;-34.932;138.594;2023-07-29T00:50:44;101484.64;;;15.56;68.59
53635;BME280;39542;-34.932;138.594;2023-07-29T00:51:18;101482.83;;;15.55;68.66
53635;BME280;39542;-34.932;138.594;2023-07-29T00:51:53;101482.75;;;15.56;68.64
53635;BME280;39542;-34.932;138.594;2023-07-29T00:52:27;101480.42;;;15.55;68.92
53635;BME280;39542;-34.932;138.594;2023-07-29T00:53:02;101482.20;;;15.58;68.73
53635;BME280;39542;-34.932;138.594;2023-07-29T00:53:36;101482.05;;;15.59;68.81
53635;BME280;39542;-34.932;138.594;2023-07-29T00:54:12;101479.46;;;15.58;68.77
53635;BME280;39542;-34.932;138.594;2023-07-29T00:54:46;101479.26;;;15.58;68.77
53635;BME280;39542;-34.932;138.594;2023-07-29T00:55:21;101479.79;;;15.58;68.77
53635;BME280;39542;-34.932;138.594;2023-07-29T00:55:55;101476.83;;;15.59;68.74
53635;BME280;39542;-34.932;138.594;2023-07-29T00:56:30;101481.70;;;15.58;68.77
53635;BME280;39542;-34.932;138.594;2023-07-29T00:57:04;101480.53;;;15.57;68.67
53635;BME280;39542;-34.932;138.594;2023-07-29T00:57:40;101478.71;;;15.56;68.74
53635;BME280;39542;-34.932;138.594;2023-07-29T00:58:15;101481.10;;;15.57;68.75
53635;BME280;39542;-34.932;138.594;2023-07-29T00:58:50;101480.31;;;15.54;68.84
53635;BME280;39542;-34.932;138.594;2023-07-29T00:59:24;101480.47;;;15.52;68.84
53635;BME280;39542;-34.932;138.594;2023-07-29T01:00:00;101481.40;;;15.56;68.73
53635;BME280;39542;-34.932;138.594;2023-07-29T01:00:34;101481.83;;;15.56;68.72
53635;BME280;39542;-34.932;138.594;2023-07-29T01:01:09;101484.25;;;15.56;68.71
53635;BME280;39542;-34.932;138.594;2023-07-29T01:01:43;101487.44;;;15.57;68.79
53635;BME280;39542;-34.932;138.594;2023-07-29T01:02:18;101486.28;;;15.56;68.74
53635;BME280;39542;-34.932;138.594;2023-07-29T01:02:52;101485.02;;;15.55;68.82
53635;BME280;39542;-34.932;138.594;2023-07-29T01:03:27;101480.53;;;15.56;68.79
53635;BME280;39542;-34.932;138.594;2023-07-29T01:04:02;101480.54;;;15.56;68.82
53635;BME280;39542;-34.932;138.594;2023-07-29T01:04:36;101479.03;;;15.56;68.73
53635;BME280;39542;-34.932;138.594;2023-07-29T01:05:14;101480.79;;;15.57;68.77
53635;BME280;39542;-34.932;138.594;2023-07-29T01:05:58;101478.97;;;15.60;68.72
53635;BME280;39542;-34.932;138.594;2023-07-29T01:06:40;101478.94;;;15.61;68.77
53635;BME280;39542;-34.932;138.594;2023-07-29T01:07:19;101479.05;;;15.61;68.77
53635;BME280;39542;-34.932;138.594;2023-07-29T01:07:59;101478.29;;;15.63;68.56
53635;BME280;39542;-34.932;138.594;2023-07-29T01:08:43;101478.40;;;15.61;68.60
53635;BME280;39542;-34.932;138.594;2023-07-29T01:09:25;101475.85;;;15.61;68.67
53635;BME280;39542;-34.932;138.594;2023-07-29T01:10:06;101476.56;;;15.59;68.90
53635;BME280;39542;-34.932;138.594;2023-07-29T01:10:50;101475.90;;;15.59;68.90
53635;BME280;39542;-34.932;138.594;2023-07-29T01:11:41;101475.94;;;15.60;68.98
53635;BME280;39542;-34.932;138.594;2023-07-29T01:12:23;101476.12;;;15.60;69.04
53635;BME280;39542;-34.932;138.594;2023-07-29T01:13:05;101473.42;;;15.60;69.07
53635;BME280;39542;-34.932;138.594;2023-07-29T01:13:50;101469.52;;;15.59;69.16
53635;BME280;39542;-34.932;138.594;2023-07-29T01:14:32;101467.21;;;15.59;69.15
53635;BME280;39542;-34.932;138.594;2023-07-29T01:15:13;101464.79;;;15.58;69.28
53635;BME280;39542;-34.932;138.594;2023-07-29T01:15:55;101462.29;;;15.58;69.14
53635;BME280;39542;-34.932;138.594;2023-07-29T01:16:36;101464.08;;;15.58;69.14
53635;BME280;39542;-34.932;138.594;2023-07-29T01:17:15;101462.59;;;15.55;69.17
53635;BME280;39542;-34.932;138.594;2023-07-29T01:17:59;101465.49;;;15.56;69.20
53635;BME280;39542;-34.932;138.594;2023-07-29T01:18:38;101464.12;;;15.55;69.21
53635;BME280;39542;-34.932;138.594;2023-07-29T01:19:25;101467.57;;;15.55;69.21
53635;BME280;39542;-34.932;138.594;2023-07-29T01:20:09;101469.54;;;15.56;69.28
53635;BME280;39542;-34.932;138.594;2023-07-29T01:20:45;101469.66;;;15.56;69.26
53635;BME280;39542;-34.932;138.594;2023-07-29T01:21:21;101471.52;;;15.57;69.23
53635;BME280;39542;-34.932;138.594;2023-07-29T01:21:56;101470.75;;;15.56;69.20
53635;BME280;39542;-34.932;138.594;2023-07-29T01:22:33;101470.47;;;15.56;69.23
53635;BME280;39542;-34.932;138.594;2023-07-29T01:23:08;101469.16;;;15.58;69.14
53635;BME280;39542;-34.932;138.594;2023-07-29T01:23:42;101469.38;;;15.57;69.20
53635;BME280;39542;-34.932;138.594;2023-07-29T01:24:16;101467.62;;;15.57;69.12
53635;BME280;39542;-34.932;138.594;2023-07-29T01:24:51;101469.86;;;15.57;69.17
53635;BME280;39542;-34.932;138.594;2023-07-29T01:25:25;101470.67;;;15.57;69.10
53635;BME280;39542;-34.932;138.594;2023-07-29T01:26:00;101469.07;;;15.55;69.19
53635;BME280;39542;-34.932;138.594;2023-07-29T01:26:35;101466.40;;;15.57;69.11
53635;BME280;39542;-34.932;138.594;2023-07-29T01:27:09;101467.48;;;15.57;69.09
53635;BME280;39542;-34.932;138.594;2023-07-29T01:27:45;101466.11;;;15.58;69.08
53635;BME280;39542;-34.932;138.594;2023-07-29T01:28:20;101468.19;;;15.58;69.04
53635;BME280;39542;-34.932;138.594;2023-07-29T01:28:55;101464.54;;;15.59;69.07
53635;BME280;39542;-34.932;138.594;2023-07-29T01:29:30;101467.50;;;15.60;69.01
53635;BME280;39542;-34.932;138.594;2023-07-29T01:30:05;101468.46;;;15.60;68.99
53635;BME280;39542;-34.932;138.594;2023-07-29T01:30:42;101466.75;;;15.60;68.99
53635;BME280;39542;-34.932;138.594;2023-07-29T01:31:23;101467.97;;;15.59;69.05
53635;BME280;39542;-34.932;138.594;2023-07-29T01:32:06;101465.34;;;15.60;68.98
53635;BME280;39542;-34.932;138.594;2023-07-29T01:32:46;101466.41;;;15.60;68.98
53635;BME280;39542;-34.932;138.594;2023-07-29T01:33:30;101464.61;;;15.61;68.97
53635;BME280;39542;-34.932;138.594;2023-07-29T01:34:15;101464.11;;;15.63;68.91
53635;BME280;39542;-34.932;138.594;2023-07-29T01:35:04;101460.87;;;15.63;68.89
53635;BME280;39542;-34.932;138.594;2023-07-29T01:35:46;101459.68;;;15.63;68.85
53635;BME280;39542;-34.932;138.594;2023-07-29T01:36:24;101455.27;;;15.62;68.91
53635;BME280;39542;-34.932;138.594;2023-07-29T01:37:02;101455.59;;;15.63;68.84
53635;BME280;39542;-34.932;138.594;2023-07-29T01:37:39;101452.78;;;15.63;68.88
53635;BME280;39542;-34.932;138.594;2023-07-29T01:38:19;101450.62;;;15.62;68.87
53635;BME280;39542;-34.932;138.594;2023-07-29T01:38:56;101449.37;;;15.63;68.81
53635;BME280;39542;-34.932;138.594;2023-07-29T01:39:34;101448.47;;;15.63;68.83
53635;BME280;39542;-34.932;138.594;2023-07-29T01:40:12;101451.38;;;15.63;68.82
53635;BME280;39542;-34.932;138.594;2023-07-29T01:40:47;101453.70;;;15.62;68.78
53635;BME280;39542;-34.932;138.594;2023-07-29T01:41:23;101455.77;;;15.62;68.84
53635;BME280;39542;-34.932;138.594;2023-07-29T01:41:58;101455.24;;;15.62;68.80
53635;BME280;39542;-34.932;138.594;2023-07-29T01:42:33;101452.08;;;15.62;68.81
53635;BME280;39542;-34.932;138.594;2023-07-29T01:43:08;101454.20;;;15.63;68.77
53635;BME280;39542;-34.932;138.594;2023-07-29T01:43:43;101455.38;;;15.62;68.81
53635;BME280;39542;-34.932;138.594;2023-07-29T01:44:18;101455.25;;;15.61;68.80
53635;BME280;39542;-34.932;138.594;2023-07-29T01:44:53;101453.89;;;15.62;68.78
53635;BME280;39542;-34.932;138.594;2023-07-29T01:45:27;101452.06;;;15.63;68.73
53635;BME280;39542;-34.932;138.594;2023-07-29T01:46:02;101449.22;;;15.64;68.70
53635;BME280;39542;-34.932;138.594;2023-07-29T01:46:37;101450.22;;;15.64;68.71
53635;BME280;39542;-34.932;138.594;2023-07-29T01:47:12;101449.37;;;15.64;68.69
53635;BME280;39542;-34.932;138.594;2023-07-29T01:47:47;101447.46;;;15.64;68.65
53635;BME280;39542;-34.932;138.594;2023-07-29T01:48:21;101452.56;;;15.63;68.74
53635;BME280;39542;-34.932;138.594;2023-07-29T01:48:55;101449.52;;;15.63;68.71
53635;BME280;39542;-34.932;138.594;2023-07-29T01:49:29;101449.61;;;15.63;68.69
53635;BME280;39542;-34.932;138.594;2023-07-29T01:50:04;101442.32;;;15.62;68.76
53635;BME280;39542;-34.932;138.594;2023-07-29T01:50:39;101441.04;;;15.62;68.72
53635;BME280;39542;-34.932;138.594;2023-07-29T01:51:14;101440.67;;;15.63;68.70
53635;BME280;39542;-34.932;138.594;2023-07-29T01:51:48;101439.28;;;15.63;68.64
53635;BME280;39542;-34.932;138.594;2023-07-29T01:52:23;101442.37;;;15.63;68.69
53635;BME280;39542;-34.932;138.594;2023-07-29T01:52:57;101438.81;;;15.64;68.68
53635;BME280;39542;-34.932;138.594;2023-07-29T01:53:31;101440.89;;;15.64;68.59
53635;BME280;39542;-34.932;138.594;2023-07-29T01:54:05;101441.62;;;15.63;68.67
53635;BME280;39542;-34.932;138.594;2023-07-29T01:54:40;101438.55;;;15.64;68.64
53635;BME280;39542;-34.932;138.594;2023-07-29T01:55:14;101437.20;;;15.63;68.63
53635;BME280;39542;-34.932;138.594;2023-07-29T01:55:49;101435.41;;;15.64;68.62
53635;BME280;39542;-34.932;138.594;2023-07-29T01:56:22;101434.57;;;15.64;68.60
53635;BME280;39542;-34.932;138.594;2023-07-29T01:56:57;101435.96;;;15.65;68.63
53635;BME280;39542;-34.932;138.594;2023-07-29T01:57:31;101433.00;;;15.64;68.57
53635;BME280;39542;-34.932;138.594;2023-07-29T01:58:05;101436.09;;;15.64;68.58
53635;BME280;39542;-34.932;138.594;2023-07-29T01:58:39;101436.44;;;15.63;68.63
53635;BME280;39542;-34.932;138.594;2023-07-29T01:59:14;101433.66;;;15.62;68.60
53635;BME280;39542;-34.932;138.594;2023-07-29T01:59:48;101431.43;;;15.62;68.56
53635;BME280;39542;-34.932;138.594;2023-07-29T02:00:23;101429.45;;;15.63;68.55
53635;BME280;39542;-34.932;138.594;2023-07-29T02:00:56;101430.29;;;15.62;68.65
53635;BME280;39542;-34.932;138.594;2023-07-29T02:01:31;101434.76;;;15.61;68.62
53635;BME280;39542;-34.932;138.594;2023-07-29T02:02:05;101434.45;;;15.63;68.54
53635;BME280;39542;-34.932;138.594;2023-07-29T02:02:40;101433.57;;;15.63;68.57
53635;BME280;39542;-34.932;138.594;2023-07-29T02:03:14;101433.98;;;15.63;68.53
53635;BME280;39542;-34.932;138.594;2023-07-29T02:03:49;101431.42;;;15.63;68.54
53635;BME280;39542;-34.932;138.594;2023-07-29T02:04:23;101433.55;;;15.62;68.57
53635;BME280;39542;-34.932;138.594;2023-07-29T02:04:58;101434.17;;;15.62;68.53
53635;BME280;39542;-34.932;138.594;2023-07-29T02:05:32;101428.38;;;15.62;68.55
53635;BME280;39542;-34.932;138.594;2023-07-29T02:06:06;101428.79;;;15.63;68.50
53635;BME280;39542;-34.932;138.594;2023-07-29T02:06:41;101428.02;;;15.63;68.53
53635;BME280;39542;-34.932;138.594;2023-07-29T02:07:15;101429.16;;;15.65;68.54
53635;BME280;39542;-34.932;138.594;2023-07-29T02:07:49;101426.28;;;15.65;68.49
53635;BME280;39542;-34.932;138.594;2023-07-29T02:08:23;101427.55;;;15.64;68.48
53635;BME280;39542;-34.932;138.594;2023-07-29T02:08:57;101424.91;;;15.64;68.45
53635;BME280;39542;-34.932;138.594;2023-07-29T02:09:32;101424.68;;;15.63;68.48
53635;BME280;39542;-34.932;138.594;2023-07-29T02:10:07;101428.19;;;15.63;68.51
53635;BME280;39542;-34.932;138.594;2023-07-29T02:10:41;101425.20;;;15.62;68.54
53635;BME280;39542;-34.932;138.594;2023-07-29T02:11:15;101425.04;;;15.64;68.51
53635;BME280;39542;-34.932;138.594;2023-07-29T02:11:49;101421.56;;;15.63;68.50
53635;BME280;39542;-34.932;138.594;2023-07-29T02:12:23;101419.00;;;15.64;68.46
53635;BME280;39542;-34.932;138.594;2023-07-29T02:12:58;101419.23;;;15.64;68.49
53635;BME280;39542;-34.932;138.594;2023-07-29T02:13:32;101415.66;;;15.63;68.48
53635;BME280;39542;-34.932;138.594;2023-07-29T02:14:06;101413.42;;;15.62;68.49
53635;BME280;39542;-34.932;138.594;2023-07-29T02:14:41;101413.34;;;15.62;68.51
53635;BME280;39542;-34.932;138.594;2023-07-29T02:15:15;101412.98;;;15.63;68.47
53635;BME280;39542;-34.932;138.594;2023-07-29T02:15:50;101414.87;;;15.62;68.49
53635;BME280;39542;-34.932;138.594;2023-07-29T02:16:24;101409.99;;;15.60;68.45
53635;BME280;39542;-34.932;138.594;2023-07-29T02:16:59;101408.08;;;15.61;68.48
53635;BME280;39542;-34.932;138.594;2023-07-29T02:17:33;101403.94;;;15.59;68.48
53635;BME280;39542;-34.932;138.594;2023-07-29T02:18:07;101398.93;;;15.59;68.49
53635;BME280;39542;-34.932;138.594;2023-07-29T02:18:42;101399.63;;;15.59;68.52
53635;BME280;39542;-34.932;138.594;2023-07-29T02:19:16;101392.74;;;15.57;68.53
53635;BME280;39542;-34.932;138.594;2023-07-29T02:19:50;101391.54;;;15.59;68.49
53635;BME280;39542;-34.932;138.594;2023-07-29T02:20:24;101391.70;;;15.61;68.43
53635;BME280;39542;-34.932;138.594;2023-07-29T02:20:59;101388.17;;;15.61;68.47
53635;BME280;39542;-34.932;138.594;2023-07-29T02:21:33;101390.72;;;15.59;68.50
53635;BME280;39542;-34.932;138.594;2023-07-29T02:22:07;101391.35;;;15.58;68.52
53635;BME280;39542;-34.932;138.594;2023-07-29T02:22:42;101390.38;;;15.57;68.54
53635;BME280;39542;-34.932;138.594;2023-07-29T02:23:16;101390.65;;;15.57;68.55
53635;BME280;39542;-34.932;138.594;2023-07-29T02:23:50;101386.54;;;15.56;68.55
53635;BME280;39542;-34.932;138.594;2023-07-29T02:24:25;101388.43;;;15.59;68.49
53635;BME280;39542;-34.932;138.594;2023-07-29T02:24:59;101383.71;;;15.57;68.50
53635;BME280;39542;-34.932;138.594;2023-07-29T02:25:36;101384.48;;;15.58;68.46
53635;BME280;39542;-34.932;138.594;2023-07-29T02:26:10;101385.00;;;15.60;68.40
53635;BME280;39542;-34.932;138.594;2023-07-29T02:26:45;101382.25;;;15.61;68.41
53635;BME280;39542;-34.932;138.594;2023-07-29T02:27:19;101381.21;;;15.60;68.40
53635;BME280;39542;-34.932;138.594;2023-07-29T02:27:53;101381.82;;;15.61;68.38
53635;BME280;39542;-34.932;138.594;2023-07-29T02:28:28;101379.97;;;15.61;68.34
53635;BME280;39542;-34.932;138.594;2023-07-29T02:29:02;101376.98;;;15.61;68.37
53635;BME280;39542;-34.932;138.594;2023-07-29T02:29:36;101376.02;;;15.61;68.38
53635;BME280;39542;-34.932;138.594;2023-07-29T02:30:11;101373.31;;;15.61;68.32
53635;BME280;39542;-34.932;138.594;2023-07-29T02:30:46;101373.48;;;15.61;68.35
53635;BME280;39542;-34.932;138.594;2023-07-29T02:31:23;101371.24;;;15.62;68.35
53635;BME280;39542;-34.932;138.594;2023-07-29T02:31:57;101373.42;;;15.61;68.32
53635;BME280;39542;-34.932;138.594;2023-07-29T02:32:31;101375.40;;;15.61;68.37
53635;BME280;39542;-34.932;138.594;2023-07-29T02:33:05;101373.52;;;15.61;68.33
53635;BME280;39542;-34.932;138.594;2023-07-29T02:33:39;101374.87;;;15.63;68.29
53635;BME280;39542;-34.932;138.594;2023-07-29T02:34:13;101374.21;;;15.63;68.29
53635;BME280;39542;-34.932;138.594;2023-07-29T02:36:26;101372.58;;;15.64;68.26
53635;BME280;39542;-34.932;138.594;2023-07-29T02:37:00;101369.72;;;15.64;68.24
53635;BME280;39542;-34.932;138.594;2023-07-29T02:37:35;101366.43;;;15.66;68.16
53635;BME280;39542;-34.932;138.594;2023-07-29T02:38:09;101365.10;;;15.65;68.23
53635;BME280;39542;-34.932;138.594;2023-07-29T02:38:44;101363.60;;;15.65;68.19
53635;BME280;39542;-34.932;138.594;2023-07-29T02:39:18;101366.29;;;15.64;68.19
53635;BME280;39542;-34.932;138.594;2023-07-29T02:39:53;101367.92;;;15.65;68.24
53635;BME280;39542;-34.932;138.594;2023-07-29T02:40:27;101366.29;;;15.67;68.20
53635;BME280;39542;-34.932;138.594;2023-07-29T02:41:02;101364.81;;;15.65;68.31
53635;BME280;39542;-34.932;138.594;2023-07-29T02:41:36;101364.64;;;15.64;68.31
53635;BME280;39542;-34.932;138.594;2023-07-29T02:42:10;101363.12;;;15.64;68.34
53635;BME280;39542;-34.932;138.594;2023-07-29T02:42:45;101364.55;;;15.65;68.32
53635;BME280;39542;-34.932;138.594;2023-07-29T02:43:19;101363.70;;;15.65;68.32
53635;BME280;39542;-34.932;138.594;2023-07-29T02:43:54;101358.57;;;15.66;68.29
53635;BME280;39542;-34.932;138.594;2023-07-29T02:44:28;101359.01;;;15.66;68.36
53635;BME280;39542;-34.932;138.594;2023-07-29T02:45:02;101362.81;;;15.67;68.33
53635;BME280;39542;-34.932;138.594;2023-07-29T02:45:37;101358.86;;;15.67;68.38
53635;BME280;39542;-34.932;138.594;2023-07-29T02:46:11;101363.05;;;15.68;68.37
53635;BME280;39542;-34.932;138.594;2023-07-29T02:46:46;101359.46;;;15.68;68.37
53635;BME280;39542;-34.932;138.594;2023-07-29T02:47:20;101354.99;;;15.69;68.35
53635;BME280;39542;-34.932;138.594;2023-07-29T02:47:54;101356.08;;;15.69;68.37
53635;BME280;39542;-34.932;138.594;2023-07-29T02:48:28;101356.24;;;15.68;68.40
53635;BME280;39542;-34.932;138.594;2023-07-29T02:49:03;101352.68;;;15.68;68.37
53635;BME280;39542;-34.932;138.594;2023-07-29T02:49:38;101353.95;;;15.68;68.40
53635;BME280;39542;-34.932;138.594;2023-07-29T02:50:12;101350.74;;;15.67;68.41
53635;BME280;39542;-34.932;138.594;2023-07-29T02:50:47;101351.00;;;15.68;68.40
53635;BME280;39542;-34.932;138.594;2023-07-29T02:51:21;101348.34;;;15.68;68.44
53635;BME280;39542;-34.932;138.594;2023-07-29T02:51:55;101348.49;;;15.69;68.35
53635;BME280;39542;-34.932;138.594;2023-07-29T02:52:30;101349.75;;;15.72;68.32
53635;BME280;39542;-34.932;138.594;2023-07-29T02:53:04;101345.81;;;15.69;68.44
53635;BME280;39542;-34.932;138.594;2023-07-29T02:53:38;101346.00;;;15.70;68.35
53635;BME280;39542;-34.932;138.594;2023-07-29T02:54:12;101348.43;;;15.71;68.41
53635;BME280;39542;-34.932;138.594;2023-07-29T02:54:47;101343.42;;;15.73;68.30
53635;BME280;39542;-34.932;138.594;2023-07-29T02:55:21;101346.36;;;15.75;68.25
53635;BME280;39542;-34.932;138.594;2023-07-29T02:55:56;101344.62;;;15.77;68.20
53635;BME280;39542;-34.932;138.594;2023-07-29T02:56:30;101342.36;;;15.79;68.14
53635;BME280;39542;-34.932;138.594;2023-07-29T02:57:05;101340.86;;;15.78;68.17
53635;BME280;39542;-34.932;138.594;2023-07-29T02:57:39;101343.22;;;15.77;68.17
53635;BME280;39542;-34.932;138.594;2023-07-29T02:58:13;101344.22;;;15.76;68.21
53635;BME280;39542;-34.932;138.594;2023-07-29T02:58:48;101341.40;;;15.77;68.19
53635;BME280;39542;-34.932;138.594;2023-07-29T02:59:22;101343.44;;;15.76;68.21
53635;BME280;39542;-34.932;138.594;2023-07-29T02:59:57;101344.75;;;15.76;68.34